sensor_id;sensor_type;location;lat;lon;timestamp;P1;durP1;ratioP1;P2;durP2;ratioP2
76745;SDS011;65671;49.976;20.038;2023-04-25T00:02:01;14.45;;;9.90;;
76745;SDS011;65671;49.976;20.038;2023-04-25T00:04:28;15.10;;;10.43;;
76745;SDS011;65671;49.976;20.038;2023-04-25T00:06:55;13.35;;;9.07;;
76745;SDS011;65671;49.976;20.038;2023-04-25T00:09:21;12.23;;;8.13;;
76745;SDS011;65671;49.976;20.038;2023-04-25T00:11:47;13.20;;;8.70;;
76745;SDS011;65671;49.976;20.038;2023-04-25T00:14:13;14.25;;;9.32;;
76745;SDS011;65671;49.976;20.038;2023-04-25T00:16:39;12.77;;;8.82;;
76745;SDS011;65671;49.976;20.038;2023-04-25T00:19:06;12.55;;;7.72;;
76745;SDS011;65671;49.976;20.038;2023-04-25T00:21:32;10.32;;;7.25;;
76745;SDS011;65671;49.976;20.038;2023-04-25T00:23:58;9.85;;;6.10;;
76745;SDS011;65671;49.976;20.038;2023-04-25T00:26:25;8.65;;;5.90;;
76745;SDS011;65671;49.976;20.038;2023-04-25T00:28:50;6.53;;;4.20;;
76745;SDS011;65671;49.976;20.038;2023-04-25T00:31:16;6.65;;;3.97;;
76745;SDS011;65671;49.976;20.038;2023-04-25T00:33:42;4.95;;;3.53;;
76745;SDS011;65671;49.976;20.038;2023-04-25T00:36:07;5.25;;;3.30;;
76745;SDS011;65671;49.976;20.038;2023-04-25T00:38:33;4.65;;;3.25;;
76745;SDS011;65671;49.976;20.038;2023-04-25T00:40:59;4.50;;;3.15;;
76745;SDS011;65671;49.976;20.038;2023-04-25T00:43:28;5.18;;;2.80;;
76745;SDS011;65671;49.976;20.038;2023-04-25T00:48:24;3.28;;;2.40;;
76745;SDS011;65671;49.976;20.038;2023-04-25T00:50:53;4.25;;;2.80;;
76745;SDS011;65671;49.976;20.038;2023-04-25T00:53:22;3.83;;;2.83;;
76745;SDS011;65671;49.976;20.038;2023-04-25T00:55:50;4.93;;;3.50;;
76745;SDS011;65671;49.976;20.038;2023-04-25T00:58:16;5.00;;;2.97;;
76745;SDS011;65671;49.976;20.038;2023-04-25T01:00:44;4.50;;;2.95;;
76745;SDS011;65671;49.976;20.038;2023-04-25T01:03:12;4.65;;;2.83;;
76745;SDS011;65671;49.976;20.038;2023-04-25T01:05:38;5.18;;;3.67;;
76745;SDS011;65671;49.976;20.038;2023-04-25T01:08:06;4.97;;;3.40;;
76745;SDS011;65671;49.976;20.038;2023-04-25T01:10:32;6.05;;;4.38;;
76745;SDS011;65671;49.976;20.038;2023-04-25T01:12:58;7.45;;;4.70;;
76745;SDS011;65671;49.976;20.038;2023-04-25T01:15:24;8.55;;;4.72;;
76745;SDS011;65671;49.976;20.038;2023-04-25T01:17:50;7.25;;;5.03;;
76745;SDS011;65671;49.976;20.038;2023-04-25T01:20:15;10.13;;;5.38;;
76745;SDS011;65671;49.976;20.038;2023-04-25T01:22:42;8.65;;;5.35;;
76745;SDS011;65671;49.976;20.038;2023-04-25T01:25:08;10.52;;;7.78;;
76745;SDS011;65671;49.976;20.038;2023-04-25T01:27:35;7.95;;;5.55;;
76745;SDS011;65671;49.976;20.038;2023-04-25T01:30:02;7.50;;;4.88;;
76745;SDS011;65671;49.976;20.038;2023-04-25T01:32:28;7.53;;;5.63;;
76745;SDS011;65671;49.976;20.038;2023-04-25T01:35:03;7.78;;;5.05;;
76745;SDS011;65671;49.976;20.038;2023-04-25T01:37:35;8.02;;;5.18;;
76745;SDS011;65671;49.976;20.038;2023-04-25T01:40:05;10.02;;;6.40;;
76745;SDS011;65671;49.976;20.038;2023-04-25T01:42:32;8.48;;;5.55;;
76745;SDS011;65671;49.976;20.038;2023-04-25T01:44:59;7.57;;;5.32;;
76745;SDS011;65671;49.976;20.038;2023-04-25T01:47:25;7.07;;;5.35;;
76745;SDS011;65671;49.976;20.038;2023-04-25T01:49:51;10.13;;;5.78;;
76745;SDS011;65671;49.976;20.038;2023-04-25T01:52:16;10.40;;;5.85;;
76745;SDS011;65671;49.976;20.038;2023-04-25T01:54:42;11.23;;;6.10;;
76745;SDS011;65671;49.976;20.038;2023-04-25T01:57:10;9.35;;;6.30;;
76745;SDS011;65671;49.976;20.038;2023-04-25T01:59:39;8.32;;;6.68;;
76745;SDS011;65671;49.976;20.038;2023-04-25T02:02:05;8.93;;;5.75;;
76745;SDS011;65671;49.976;20.038;2023-04-25T02:04:31;9.40;;;6.38;;
76745;SDS011;65671;49.976;20.038;2023-04-25T02:06:57;10.95;;;6.25;;
76745;SDS011;65671;49.976;20.038;2023-04-25T02:09:24;10.63;;;6.40;;
76745;SDS011;65671;49.976;20.038;2023-04-25T02:11:49;10.05;;;7.20;;
76745;SDS011;65671;49.976;20.038;2023-04-25T02:14:15;11.50;;;8.00;;
76745;SDS011;65671;49.976;20.038;2023-04-25T02:16:41;11.32;;;7.03;;
76745;SDS011;65671;49.976;20.038;2023-04-25T02:19:08;11.02;;;6.47;;
76745;SDS011;65671;49.976;20.038;2023-04-25T02:21:35;9.98;;;6.88;;
76745;SDS011;65671;49.976;20.038;2023-04-25T02:24:01;8.02;;;5.68;;
76745;SDS011;65671;49.976;20.038;2023-04-25T02:26:27;8.73;;;6.10;;
76745;SDS011;65671;49.976;20.038;2023-04-25T02:28:52;8.18;;;6.15;;
76745;SDS011;65671;49.976;20.038;2023-04-25T02:31:18;8.80;;;5.55;;
76745;SDS011;65671;49.976;20.038;2023-04-25T02:33:44;7.78;;;5.32;;
76745;SDS011;65671;49.976;20.038;2023-04-25T02:36:10;9.85;;;6.50;;
76745;SDS011;65671;49.976;20.038;2023-04-25T02:38:35;10.20;;;6.32;;
76745;SDS011;65671;49.976;20.038;2023-04-25T02:41:01;13.73;;;7.72;;
76745;SDS011;65671;49.976;20.038;2023-04-25T02:43:26;9.77;;;6.72;;
76745;SDS011;65671;49.976;20.038;2023-04-25T02:45:51;11.18;;;7.53;;
76745;SDS011;65671;49.976;20.038;2023-04-25T02:48:17;10.60;;;7.03;;
76745;SDS011;65671;49.976;20.038;2023-04-25T02:50:43;11.50;;;6.88;;
76745;SDS011;65671;49.976;20.038;2023-04-25T02:53:08;12.73;;;6.65;;
76745;SDS011;65671;49.976;20.038;2023-04-25T02:55:34;9.07;;;5.80;;
76745;SDS011;65671;49.976;20.038;2023-04-25T02:57:59;11.43;;;6.57;;
76745;SDS011;65671;49.976;20.038;2023-04-25T03:00:25;9.93;;;6.38;;
76745;SDS011;65671;49.976;20.038;2023-04-25T03:02:50;7.80;;;5.90;;
76745;SDS011;65671;49.976;20.038;2023-04-25T03:05:16;13.27;;;6.97;;
76745;SDS011;65671;49.976;20.038;2023-04-25T03:07:42;9.60;;;6.07;;
76745;SDS011;65671;49.976;20.038;2023-04-25T03:10:08;9.38;;;5.80;;
76745;SDS011;65671;49.976;20.038;2023-04-25T03:12:35;7.50;;;5.18;;
76745;SDS011;65671;49.976;20.038;2023-04-25T03:15:01;8.05;;;5.72;;
76745;SDS011;65671;49.976;20.038;2023-04-25T03:17:27;10.45;;;6.60;;
76745;SDS011;65671;49.976;20.038;2023-04-25T03:19:53;8.65;;;6.25;;
76745;SDS011;65671;49.976;20.038;2023-04-25T03:22:18;10.80;;;6.63;;
76745;SDS011;65671;49.976;20.038;2023-04-25T03:24:44;10.82;;;7.10;;
76745;SDS011;65671;49.976;20.038;2023-04-25T03:27:10;10.80;;;7.15;;
76745;SDS011;65671;49.976;20.038;2023-04-25T03:29:35;14.65;;;7.78;;
76745;SDS011;65671;49.976;20.038;2023-04-25T03:32:01;12.43;;;8.57;;
76745;SDS011;65671;49.976;20.038;2023-04-25T03:34:26;13.15;;;8.52;;
76745;SDS011;65671;49.976;20.038;2023-04-25T03:36:52;15.23;;;9.32;;
76745;SDS011;65671;49.976;20.038;2023-04-25T03:39:17;12.40;;;9.00;;
76745;SDS011;65671;49.976;20.038;2023-04-25T03:41:43;12.57;;;8.88;;
76745;SDS011;65671;49.976;20.038;2023-04-25T03:44:08;14.10;;;8.75;;
76745;SDS011;65671;49.976;20.038;2023-04-25T03:46:34;12.50;;;8.93;;
76745;SDS011;65671;49.976;20.038;2023-04-25T03:48:59;10.30;;;7.03;;
76745;SDS011;65671;49.976;20.038;2023-04-25T03:51:25;13.15;;;8.52;;
76745;SDS011;65671;49.976;20.038;2023-04-25T03:53:51;13.10;;;8.73;;
76745;SDS011;65671;49.976;20.038;2023-04-25T03:56:17;13.82;;;9.02;;
76745;SDS011;65671;49.976;20.038;2023-04-25T03:58:43;13.80;;;8.13;;
76745;SDS011;65671;49.976;20.038;2023-04-25T04:01:09;12.45;;;7.97;;
76745;SDS011;65671;49.976;20.038;2023-04-25T04:03:35;13.63;;;8.13;;
76745;SDS011;65671;49.976;20.038;2023-04-25T04:06:01;11.95;;;8.38;;
76745;SDS011;65671;49.976;20.038;2023-04-25T04:08:29;16.00;;;8.98;;
76745;SDS011;65671;49.976;20.038;2023-04-25T04:10:55;14.38;;;9.32;;
76745;SDS011;65671;49.976;20.038;2023-04-25T04:13:22;15.10;;;10.68;;
76745;SDS011;65671;49.976;20.038;2023-04-25T04:15:47;14.93;;;10.25;;
76745;SDS011;65671;49.976;20.038;2023-04-25T04:18:13;16.77;;;10.25;;
76745;SDS011;65671;49.976;20.038;2023-04-25T04:20:39;14.77;;;10.18;;
76745;SDS011;65671;49.976;20.038;2023-04-25T04:23:04;17.45;;;10.52;;
76745;SDS011;65671;49.976;20.038;2023-04-25T04:25:30;16.33;;;11.13;;
76745;SDS011;65671;49.976;20.038;2023-04-25T04:27:56;17.05;;;11.25;;
76745;SDS011;65671;49.976;20.038;2023-04-25T04:30:22;18.15;;;11.45;;
76745;SDS011;65671;49.976;20.038;2023-04-25T04:32:54;17.73;;;11.38;;
76745;SDS011;65671;49.976;20.038;2023-04-25T04:35:21;18.83;;;11.30;;
76745;SDS011;65671;49.976;20.038;2023-04-25T04:37:47;19.75;;;12.48;;
76745;SDS011;65671;49.976;20.038;2023-04-25T04:40:13;17.63;;;11.77;;
76745;SDS011;65671;49.976;20.038;2023-04-25T04:42:44;18.13;;;11.85;;
76745;SDS011;65671;49.976;20.038;2023-04-25T04:45:14;12.50;;;9.38;;
76745;SDS011;65671;49.976;20.038;2023-04-25T04:47:41;14.98;;;9.57;;
76745;SDS011;65671;49.976;20.038;2023-04-25T04:50:07;14.27;;;8.25;;
76745;SDS011;65671;49.976;20.038;2023-04-25T04:52:37;12.40;;;7.75;;
76745;SDS011;65671;49.976;20.038;2023-04-25T04:55:04;17.75;;;9.30;;
76745;SDS011;65671;49.976;20.038;2023-04-25T04:57:33;17.27;;;11.30;;
76745;SDS011;65671;49.976;20.038;2023-04-25T04:59:59;17.17;;;10.90;;
76745;SDS011;65671;49.976;20.038;2023-04-25T05:02:25;18.00;;;12.25;;
76745;SDS011;65671;49.976;20.038;2023-04-25T05:04:51;19.80;;;10.95;;
76745;SDS011;65671;49.976;20.038;2023-04-25T05:07:18;17.88;;;11.27;;
76745;SDS011;65671;49.976;20.038;2023-04-25T05:09:44;16.10;;;10.90;;
76745;SDS011;65671;49.976;20.038;2023-04-25T05:12:10;14.07;;;10.38;;
76745;SDS011;65671;49.976;20.038;2023-04-25T05:14:35;15.13;;;10.77;;
76745;SDS011;65671;49.976;20.038;2023-04-25T05:17:01;16.33;;;10.93;;
76745;SDS011;65671;49.976;20.038;2023-04-25T05:19:28;15.60;;;11.05;;
76745;SDS011;65671;49.976;20.038;2023-04-25T05:21:54;14.43;;;10.15;;
76745;SDS011;65671;49.976;20.038;2023-04-25T05:24:20;15.05;;;10.35;;
76745;SDS011;65671;49.976;20.038;2023-04-25T05:26:45;14.73;;;9.38;;
76745;SDS011;65671;49.976;20.038;2023-04-25T05:29:11;16.73;;;10.48;;
76745;SDS011;65671;49.976;20.038;2023-04-25T05:31:36;16.73;;;10.07;;
76745;SDS011;65671;49.976;20.038;2023-04-25T05:34:02;13.63;;;9.40;;
76745;SDS011;65671;49.976;20.038;2023-04-25T05:36:28;14.52;;;9.00;;
76745;SDS011;65671;49.976;20.038;2023-04-25T05:38:53;16.02;;;8.80;;
76745;SDS011;65671;49.976;20.038;2023-04-25T05:41:19;13.70;;;9.18;;
76745;SDS011;65671;49.976;20.038;2023-04-25T05:43:45;14.02;;;9.00;;
76745;SDS011;65671;49.976;20.038;2023-04-25T05:46:12;14.32;;;9.45;;
76745;SDS011;65671;49.976;20.038;2023-04-25T05:48:39;13.73;;;10.07;;
76745;SDS011;65671;49.976;20.038;2023-04-25T05:51:05;13.93;;;8.93;;
76745;SDS011;65671;49.976;20.038;2023-04-25T05:53:30;15.02;;;8.10;;
76745;SDS011;65671;49.976;20.038;2023-04-25T05:55:56;14.00;;;9.05;;
76745;SDS011;65671;49.976;20.038;2023-04-25T05:58:21;10.55;;;8.30;;
76745;SDS011;65671;49.976;20.038;2023-04-25T06:00:47;10.40;;;6.95;;
76745;SDS011;65671;49.976;20.038;2023-04-25T06:03:13;12.50;;;8.55;;
76745;SDS011;65671;49.976;20.038;2023-04-25T06:05:42;10.77;;;7.53;;
76745;SDS011;65671;49.976;20.038;2023-04-25T06:08:08;11.15;;;7.50;;
76745;SDS011;65671;49.976;20.038;2023-04-25T06:10:35;8.70;;;5.45;;
76745;SDS011;65671;49.976;20.038;2023-04-25T06:13:01;10.40;;;6.00;;
76745;SDS011;65671;49.976;20.038;2023-04-25T06:15:27;7.90;;;5.10;;
76745;SDS011;65671;49.976;20.038;2023-04-25T06:17:52;10.13;;;5.57;;
76745;SDS011;65671;49.976;20.038;2023-04-25T06:20:18;6.45;;;4.63;;
76745;SDS011;65671;49.976;20.038;2023-04-25T06:22:48;7.85;;;4.75;;
76745;SDS011;65671;49.976;20.038;2023-04-25T06:25:14;10.85;;;4.38;;
76745;SDS011;65671;49.976;20.038;2023-04-25T06:27:40;7.13;;;4.55;;
76745;SDS011;65671;49.976;20.038;2023-04-25T06:30:06;6.57;;;4.80;;
76745;SDS011;65671;49.976;20.038;2023-04-25T06:32:32;9.48;;;4.93;;
76745;SDS011;65671;49.976;20.038;2023-04-25T06:34:59;6.20;;;4.55;;
76745;SDS011;65671;49.976;20.038;2023-04-25T06:37:25;10.93;;;5.72;;
76745;SDS011;65671;49.976;20.038;2023-04-25T06:39:51;8.05;;;6.20;;
76745;SDS011;65671;49.976;20.038;2023-04-25T06:42:17;8.10;;;4.95;;
76745;SDS011;65671;49.976;20.038;2023-04-25T06:44:42;9.02;;;4.82;;
76745;SDS011;65671;49.976;20.038;2023-04-25T06:47:07;9.65;;;5.70;;
76745;SDS011;65671;49.976;20.038;2023-04-25T06:49:33;8.40;;;4.97;;
76745;SDS011;65671;49.976;20.038;2023-04-25T06:51:59;11.82;;;6.40;;
76745;SDS011;65671;49.976;20.038;2023-04-25T06:54:24;9.30;;;5.57;;
76745;SDS011;65671;49.976;20.038;2023-04-25T06:56:52;7.22;;;5.55;;
76745;SDS011;65671;49.976;20.038;2023-04-25T06:59:18;8.98;;;5.93;;
76745;SDS011;65671;49.976;20.038;2023-04-25T07:01:44;10.38;;;5.80;;
76745;SDS011;65671;49.976;20.038;2023-04-25T07:04:09;9.98;;;4.72;;
76745;SDS011;65671;49.976;20.038;2023-04-25T07:06:35;6.90;;;4.60;;
76745;SDS011;65671;49.976;20.038;2023-04-25T07:09:03;7.88;;;5.05;;
76745;SDS011;65671;49.976;20.038;2023-04-25T07:11:29;8.70;;;5.45;;
76745;SDS011;65671;49.976;20.038;2023-04-25T07:13:56;5.95;;;3.63;;
76745;SDS011;65671;49.976;20.038;2023-04-25T07:16:22;9.00;;;4.45;;
76745;SDS011;65671;49.976;20.038;2023-04-25T07:18:47;8.02;;;4.90;;
76745;SDS011;65671;49.976;20.038;2023-04-25T07:21:13;6.85;;;4.45;;
76745;SDS011;65671;49.976;20.038;2023-04-25T07:23:38;6.15;;;3.90;;
76745;SDS011;65671;49.976;20.038;2023-04-25T07:26:06;6.80;;;4.35;;
76745;SDS011;65671;49.976;20.038;2023-04-25T07:28:32;7.53;;;4.35;;
76745;SDS011;65671;49.976;20.038;2023-04-25T07:30:57;7.43;;;4.30;;
76745;SDS011;65671;49.976;20.038;2023-04-25T07:33:23;7.32;;;4.45;;
76745;SDS011;65671;49.976;20.038;2023-04-25T07:35:49;8.15;;;4.63;;
76745;SDS011;65671;49.976;20.038;2023-04-25T07:38:15;7.25;;;4.90;;
76745;SDS011;65671;49.976;20.038;2023-04-25T07:40:40;8.48;;;5.30;;
76745;SDS011;65671;49.976;20.038;2023-04-25T07:43:06;9.40;;;5.28;;
76745;SDS011;65671;49.976;20.038;2023-04-25T07:45:31;9.38;;;5.88;;
76745;SDS011;65671;49.976;20.038;2023-04-25T07:47:57;8.80;;;6.03;;
76745;SDS011;65671;49.976;20.038;2023-04-25T07:50:22;7.72;;;4.45;;
76745;SDS011;65671;49.976;20.038;2023-04-25T07:52:48;6.68;;;3.80;;
76745;SDS011;65671;49.976;20.038;2023-04-25T07:55:14;6.63;;;2.97;;
76745;SDS011;65671;49.976;20.038;2023-04-25T07:57:39;5.50;;;3.38;;
76745;SDS011;65671;49.976;20.038;2023-04-25T08:00:05;5.45;;;3.83;;
76745;SDS011;65671;49.976;20.038;2023-04-25T08:02:35;5.22;;;2.78;;
76745;SDS011;65671;49.976;20.038;2023-04-25T08:05:01;6.72;;;3.63;;
76745;SDS011;65671;49.976;20.038;2023-04-25T08:07:27;4.75;;;2.97;;
76745;SDS011;65671;49.976;20.038;2023-04-25T08:09:53;6.43;;;3.35;;
76745;SDS011;65671;49.976;20.038;2023-04-25T08:12:19;4.78;;;2.83;;
76745;SDS011;65671;49.976;20.038;2023-04-25T08:14:45;5.88;;;3.60;;
76745;SDS011;65671;49.976;20.038;2023-04-25T08:17:11;4.03;;;3.20;;
76745;SDS011;65671;49.976;20.038;2023-04-25T08:19:36;5.28;;;2.97;;
76745;SDS011;65671;49.976;20.038;2023-04-25T08:22:02;6.45;;;3.63;;
76745;SDS011;65671;49.976;20.038;2023-04-25T08:24:28;5.88;;;3.25;;
76745;SDS011;65671;49.976;20.038;2023-04-25T08:26:53;5.35;;;3.80;;
76745;SDS011;65671;49.976;20.038;2023-04-25T08:29:19;6.43;;;4.03;;
76745;SDS011;65671;49.976;20.038;2023-04-25T08:31:45;5.68;;;3.60;;
76745;SDS011;65671;49.976;20.038;2023-04-25T08:34:10;5.22;;;3.83;;
76745;SDS011;65671;49.976;20.038;2023-04-25T08:36:36;6.63;;;3.67;;
76745;SDS011;65671;49.976;20.038;2023-04-25T08:39:02;9.00;;;4.53;;
76745;SDS011;65671;49.976;20.038;2023-04-25T08:41:28;4.75;;;4.05;;
76745;SDS011;65671;49.976;20.038;2023-04-25T08:43:54;7.85;;;4.15;;
76745;SDS011;65671;49.976;20.038;2023-04-25T08:46:22;5.78;;;4.38;;
76745;SDS011;65671;49.976;20.038;2023-04-25T08:48:48;6.30;;;4.50;;
76745;SDS011;65671;49.976;20.038;2023-04-25T08:51:21;7.47;;;4.40;;
76745;SDS011;65671;49.976;20.038;2023-04-25T08:53:50;6.82;;;4.20;;
76745;SDS011;65671;49.976;20.038;2023-04-25T08:56:17;6.85;;;4.25;;
76745;SDS011;65671;49.976;20.038;2023-04-25T08:58:47;6.18;;;4.47;;
76745;SDS011;65671;49.976;20.038;2023-04-25T09:01:14;7.28;;;4.65;;
76745;SDS011;65671;49.976;20.038;2023-04-25T09:03:40;7.43;;;5.07;;
76745;SDS011;65671;49.976;20.038;2023-04-25T09:06:06;8.95;;;4.72;;
76745;SDS011;65671;49.976;20.038;2023-04-25T09:08:33;6.53;;;4.10;;
76745;SDS011;65671;49.976;20.038;2023-04-25T09:10:59;6.47;;;4.20;;
76745;SDS011;65671;49.976;20.038;2023-04-25T09:13:26;5.60;;;4.30;;
76745;SDS011;65671;49.976;20.038;2023-04-25T09:15:54;5.85;;;4.28;;
76745;SDS011;65671;49.976;20.038;2023-04-25T09:18:31;8.20;;;5.05;;
76745;SDS011;65671;49.976;20.038;2023-04-25T09:21:08;5.70;;;4.57;;
76745;SDS011;65671;49.976;20.038;2023-04-25T09:23:41;7.70;;;5.18;;
76745;SDS011;65671;49.976;20.038;2023-04-25T09:26:09;6.75;;;4.82;;
76745;SDS011;65671;49.976;20.038;2023-04-25T09:28:34;12.32;;;7.13;;
76745;SDS011;65671;49.976;20.038;2023-04-25T09:31:01;7.00;;;5.85;;
76745;SDS011;65671;49.976;20.038;2023-04-25T09:33:27;6.70;;;5.07;;
76745;SDS011;65671;49.976;20.038;2023-04-25T09:35:56;7.07;;;5.22;;
76745;SDS011;65671;49.976;20.038;2023-04-25T09:38:40;7.95;;;5.78;;
76745;SDS011;65671;49.976;20.038;2023-04-25T09:41:10;8.43;;;5.95;;
76745;SDS011;65671;49.976;20.038;2023-04-25T09:43:36;6.75;;;5.72;;
76745;SDS011;65671;49.976;20.038;2023-04-25T09:46:07;9.45;;;6.80;;
76745;SDS011;65671;49.976;20.038;2023-04-25T09:48:34;8.18;;;5.88;;
76745;SDS011;65671;49.976;20.038;2023-04-25T09:53:28;9.25;;;6.55;;
76745;SDS011;65671;49.976;20.038;2023-04-25T09:55:54;9.80;;;5.47;;
76745;SDS011;65671;49.976;20.038;2023-04-25T09:58:21;9.98;;;6.75;;
76745;SDS011;65671;49.976;20.038;2023-04-25T10:00:49;9.10;;;5.28;;
76745;SDS011;65671;49.976;20.038;2023-04-25T10:03:17;9.07;;;6.05;;
76745;SDS011;65671;49.976;20.038;2023-04-25T10:05:45;11.10;;;5.05;;
76745;SDS011;65671;49.976;20.038;2023-04-25T10:08:14;9.18;;;6.10;;
76745;SDS011;65671;49.976;20.038;2023-04-25T10:10:41;8.40;;;6.10;;
76745;SDS011;65671;49.976;20.038;2023-04-25T10:13:08;9.38;;;6.25;;
76745;SDS011;65671;49.976;20.038;2023-04-25T10:15:34;8.30;;;6.13;;
76745;SDS011;65671;49.976;20.038;2023-04-25T10:18:01;7.68;;;5.97;;
76745;SDS011;65671;49.976;20.038;2023-04-25T10:20:28;7.28;;;5.32;;
76745;SDS011;65671;49.976;20.038;2023-04-25T10:22:55;8.38;;;5.88;;
76745;SDS011;65671;49.976;20.038;2023-04-25T10:25:29;9.18;;;5.47;;
76745;SDS011;65671;49.976;20.038;2023-04-25T10:27:55;8.02;;;5.25;;
76745;SDS011;65671;49.976;20.038;2023-04-25T10:30:21;9.52;;;5.07;;
76745;SDS011;65671;49.976;20.038;2023-04-25T10:32:46;6.32;;;5.15;;
76745;SDS011;65671;49.976;20.038;2023-04-25T10:35:14;8.10;;;5.13;;
76745;SDS011;65671;49.976;20.038;2023-04-25T10:40:30;6.15;;;5.07;;
76745;SDS011;65671;49.976;20.038;2023-04-25T10:43:33;5.80;;;4.78;;
76745;SDS011;65671;49.976;20.038;2023-04-25T10:46:19;6.65;;;4.38;;
76745;SDS011;65671;49.976;20.038;2023-04-25T10:48:54;4.65;;;4.03;;
76745;SDS011;65671;49.976;20.038;2023-04-25T10:51:24;4.75;;;3.40;;
76745;SDS011;65671;49.976;20.038;2023-04-25T10:56:20;5.30;;;3.50;;
76745;SDS011;65671;49.976;20.038;2023-04-25T10:58:47;4.13;;;3.00;;
76745;SDS011;65671;49.976;20.038;2023-04-25T11:01:14;4.40;;;3.28;;
76745;SDS011;65671;49.976;20.038;2023-04-25T11:03:45;4.53;;;3.35;;
76745;SDS011;65671;49.976;20.038;2023-04-25T11:09:02;4.13;;;3.30;;
76745;SDS011;65671;49.976;20.038;2023-04-25T11:11:36;7.57;;;3.45;;
76745;SDS011;65671;49.976;20.038;2023-04-25T11:14:02;4.97;;;3.50;;
76745;SDS011;65671;49.976;20.038;2023-04-25T11:16:27;6.07;;;3.35;;
76745;SDS011;65671;49.976;20.038;2023-04-25T11:18:53;5.00;;;3.63;;
76745;SDS011;65671;49.976;20.038;2023-04-25T11:21:18;4.95;;;3.47;;
76745;SDS011;65671;49.976;20.038;2023-04-25T11:23:44;5.88;;;3.47;;
76745;SDS011;65671;49.976;20.038;2023-04-25T11:26:11;6.00;;;3.78;;
76745;SDS011;65671;49.976;20.038;2023-04-25T11:28:38;5.13;;;3.65;;
76745;SDS011;65671;49.976;20.038;2023-04-25T11:31:03;5.82;;;3.80;;
76745;SDS011;65671;49.976;20.038;2023-04-25T11:33:29;5.93;;;3.78;;
76745;SDS011;65671;49.976;20.038;2023-04-25T11:35:55;5.55;;;4.32;;
76745;SDS011;65671;49.976;20.038;2023-04-25T11:38:24;4.93;;;3.92;;
76745;SDS011;65671;49.976;20.038;2023-04-25T11:40:53;5.25;;;3.70;;
76745;SDS011;65671;49.976;20.038;2023-04-25T11:43:20;5.20;;;3.95;;
76745;SDS011;65671;49.976;20.038;2023-04-25T11:45:48;6.28;;;3.83;;
76745;SDS011;65671;49.976;20.038;2023-04-25T11:48:14;6.95;;;4.72;;
76745;SDS011;65671;49.976;20.038;2023-04-25T11:50:40;7.38;;;4.90;;
76745;SDS011;65671;49.976;20.038;2023-04-25T11:53:05;6.40;;;5.25;;
76745;SDS011;65671;49.976;20.038;2023-04-25T11:55:32;9.02;;;5.60;;
76745;SDS011;65671;49.976;20.038;2023-04-25T11:57:59;7.32;;;5.13;;
76745;SDS011;65671;49.976;20.038;2023-04-25T12:00:26;5.97;;;5.07;;
76745;SDS011;65671;49.976;20.038;2023-04-25T12:02:55;6.22;;;5.22;;
76745;SDS011;65671;49.976;20.038;2023-04-25T12:05:28;10.07;;;5.50;;
76745;SDS011;65671;49.976;20.038;2023-04-25T12:07:55;7.10;;;5.20;;
76745;SDS011;65671;49.976;20.038;2023-04-25T12:10:21;7.70;;;5.60;;
76745;SDS011;65671;49.976;20.038;2023-04-25T12:12:50;6.72;;;4.78;;
76745;SDS011;65671;49.976;20.038;2023-04-25T12:15:16;10.20;;;6.05;;
76745;SDS011;65671;49.976;20.038;2023-04-25T12:17:46;7.93;;;5.30;;
76745;SDS011;65671;49.976;20.038;2023-04-25T12:20:13;8.50;;;5.38;;
76745;SDS011;65671;49.976;20.038;2023-04-25T12:22:41;6.97;;;4.32;;
76745;SDS011;65671;49.976;20.038;2023-04-25T12:25:58;6.55;;;5.10;;
76745;SDS011;65671;49.976;20.038;2023-04-25T12:33:25;7.03;;;4.97;;
76745;SDS011;65671;49.976;20.038;2023-04-25T12:35:52;6.72;;;5.68;;
76745;SDS011;65671;49.976;20.038;2023-04-25T12:38:21;7.20;;;5.57;;
76745;SDS011;65671;49.976;20.038;2023-04-25T12:40:48;7.00;;;4.30;;
76745;SDS011;65671;49.976;20.038;2023-04-25T12:43:13;5.55;;;3.70;;
76745;SDS011;65671;49.976;20.038;2023-04-25T12:45:39;6.68;;;3.80;;
76745;SDS011;65671;49.976;20.038;2023-04-25T12:48:05;7.10;;;4.22;;
76745;SDS011;65671;49.976;20.038;2023-04-25T12:50:30;4.45;;;3.83;;
76745;SDS011;65671;49.976;20.038;2023-04-25T12:52:56;4.95;;;3.75;;
76745;SDS011;65671;49.976;20.038;2023-04-25T12:55:21;6.07;;;4.18;;
76745;SDS011;65671;49.976;20.038;2023-04-25T12:57:47;5.15;;;3.90;;
76745;SDS011;65671;49.976;20.038;2023-04-25T13:00:13;7.00;;;5.45;;
76745;SDS011;65671;49.976;20.038;2023-04-25T13:02:40;6.35;;;4.68;;
76745;SDS011;65671;49.976;20.038;2023-04-25T13:05:06;7.85;;;5.53;;
76745;SDS011;65671;49.976;20.038;2023-04-25T13:07:31;7.85;;;5.47;;
76745;SDS011;65671;49.976;20.038;2023-04-25T13:09:57;6.18;;;5.15;;
76745;SDS011;65671;49.976;20.038;2023-04-25T13:12:22;7.93;;;5.38;;
76745;SDS011;65671;49.976;20.038;2023-04-25T13:14:47;8.48;;;4.85;;
76745;SDS011;65671;49.976;20.038;2023-04-25T13:17:13;6.93;;;5.15;;
76745;SDS011;65671;49.976;20.038;2023-04-25T13:19:38;7.45;;;4.18;;
76745;SDS011;65671;49.976;20.038;2023-04-25T13:22:04;6.25;;;4.85;;
76745;SDS011;65671;49.976;20.038;2023-04-25T13:24:30;6.45;;;4.70;;
76745;SDS011;65671;49.976;20.038;2023-04-25T13:26:55;5.63;;;4.40;;
76745;SDS011;65671;49.976;20.038;2023-04-25T13:29:21;6.10;;;4.72;;
76745;SDS011;65671;49.976;20.038;2023-04-25T13:31:46;5.90;;;4.78;;
76745;SDS011;65671;49.976;20.038;2023-04-25T13:34:12;9.57;;;5.40;;
76745;SDS011;65671;49.976;20.038;2023-04-25T13:36:37;6.18;;;4.68;;
76745;SDS011;65671;49.976;20.038;2023-04-25T13:39:03;6.60;;;5.32;;
76745;SDS011;65671;49.976;20.038;2023-04-25T13:41:29;6.15;;;4.78;;
76745;SDS011;65671;49.976;20.038;2023-04-25T13:43:55;7.30;;;4.65;;
76745;SDS011;65671;49.976;20.038;2023-04-25T13:46:21;7.82;;;5.80;;
76745;SDS011;65671;49.976;20.038;2023-04-25T13:48:46;6.63;;;5.50;;
76745;SDS011;65671;49.976;20.038;2023-04-25T13:51:14;5.70;;;4.47;;
76745;SDS011;65671;49.976;20.038;2023-04-25T13:53:41;6.78;;;5.18;;
76745;SDS011;65671;49.976;20.038;2023-04-25T13:56:06;6.53;;;4.93;;
76745;SDS011;65671;49.976;20.038;2023-04-25T13:58:32;7.88;;;5.50;;
76745;SDS011;65671;49.976;20.038;2023-04-25T14:00:58;6.75;;;4.57;;
76745;SDS011;65671;49.976;20.038;2023-04-25T14:03:23;6.13;;;4.30;;
76745;SDS011;65671;49.976;20.038;2023-04-25T14:05:49;6.03;;;4.35;;
76745;SDS011;65671;49.976;20.038;2023-04-25T14:08:16;5.03;;;3.67;;
76745;SDS011;65671;49.976;20.038;2023-04-25T14:10:41;6.65;;;4.30;;
76745;SDS011;65671;49.976;20.038;2023-04-25T14:13:06;6.60;;;4.32;;
76745;SDS011;65671;49.976;20.038;2023-04-25T14:15:32;5.35;;;4.13;;
76745;SDS011;65671;49.976;20.038;2023-04-25T14:17:58;6.45;;;4.57;;
76745;SDS011;65671;49.976;20.038;2023-04-25T14:20:25;5.30;;;4.07;;
76745;SDS011;65671;49.976;20.038;2023-04-25T14:22:51;6.55;;;4.43;;
76745;SDS011;65671;49.976;20.038;2023-04-25T14:25:19;6.45;;;5.10;;
76745;SDS011;65671;49.976;20.038;2023-04-25T14:27:45;6.65;;;4.90;;
76745;SDS011;65671;49.976;20.038;2023-04-25T14:30:14;7.60;;;4.97;;
76745;SDS011;65671;49.976;20.038;2023-04-25T14:32:43;7.88;;;5.53;;
76745;SDS011;65671;49.976;20.038;2023-04-25T14:35:10;7.63;;;5.35;;
76745;SDS011;65671;49.976;20.038;2023-04-25T14:37:35;8.32;;;4.85;;
76745;SDS011;65671;49.976;20.038;2023-04-25T14:40:01;7.72;;;5.85;;
76745;SDS011;65671;49.976;20.038;2023-04-25T14:42:27;12.68;;;8.20;;
76745;SDS011;65671;49.976;20.038;2023-04-25T14:44:52;8.95;;;6.95;;